sensor_id;sensor_type;location;lat;lon;timestamp;pressure;altitude;pressure_sealevel;temperature;humidity
35758;BME280;21879;50.110;18.900;2023-05-27T00:10:02;99378.52;;;15.38;47.03
35758;BME280;21879;50.110;18.900;2023-05-27T00:20:28;99380.67;;;15.25;47.03
35758;BME280;21879;50.110;18.900;2023-05-27T00:30:55;99386.52;;;15.11;47.68
35758;BME280;21879;50.110;18.900;2023-05-27T00:41:21;99387.93;;;14.79;48.50
35758;BME280;21879;50.110;18.900;2023-05-27T00:51:48;99385.49;;;14.66;48.36
35758;BME280;21879;50.110;18.900;2023-05-27T01:02:14;99389.27;;;14.72;48.21
35758;BME280;21879;50.110;18.900;2023-05-27T01:12:44;99389.61;;;14.61;48.37
35758;BME280;21879;50.110;18.900;2023-05-27T01:23:12;99388.67;;;14.53;48.42
35758;BME280;21879;50.110;18.900;2023-05-27T01:33:40;99384.70;;;14.35;48.47
35758;BME280;21879;50.110;18.900;2023-05-27T01:44:07;99384.52;;;14.22;48.76
35758;BME280;21879;50.110;18.900;2023-05-27T01:54:34;99379.20;;;14.28;49.24
35758;BME280;21879;50.110;18.900;2023-05-27T02:05:02;99379.59;;;14.25;49.23
35758;BME280;21879;50.110;18.900;2023-05-27T02:15:46;99384.63;;;13.99;49.68
35758;BME280;21879;50.110;18.900;2023-05-27T02:26:12;99391.93;;;13.74;50.13
35758;BME280;21879;50.110;18.900;2023-05-27T02:36:37;99404.70;;;13.38;50.80
35758;BME280;21879;50.110;18.900;2023-05-27T02:47:04;99415.15;;;13.20;51.41
35758;BME280;21879;50.110;18.900;2023-05-27T02:57:29;99415.13;;;13.00;51.66
35758;BME280;21879;50.110;18.900;2023-05-27T03:07:56;99424.00;;;12.82;51.86
35758;BME280;21879;50.110;18.900;2023-05-27T03:18:21;99440.38;;;12.60;52.28
35758;BME280;21879;50.110;18.900;2023-05-27T03:28:47;99446.23;;;12.38;52.75
35758;BME280;21879;50.110;18.900;2023-05-27T03:39:14;99470.73;;;12.20;53.51
35758;BME280;21879;50.110;18.900;2023-05-27T03:49:41;99474.04;;;12.22;53.97
35758;BME280;21879;50.110;18.900;2023-05-27T04:00:08;99486.94;;;12.23;54.36
35758;BME280;21879;50.110;18.900;2023-05-27T04:10:36;99501.93;;;12.24;54.83
35758;BME280;21879;50.110;18.900;2023-05-27T04:21:02;99500.00;;;12.27;55.37
35758;BME280;21879;50.110;18.900;2023-05-27T04:31:29;99509.39;;;12.34;55.69
35758;BME280;21879;50.110;18.900;2023-05-27T04:41:55;99508.27;;;12.55;55.98
35758;BME280;21879;50.110;18.900;2023-05-27T04:52:22;99513.91;;;12.76;55.83
35758;BME280;21879;50.110;18.900;2023-05-27T05:02:49;99510.41;;;13.05;55.85
35758;BME280;21879;50.110;18.900;2023-05-27T05:13:24;99513.14;;;13.43;55.59
35758;BME280;21879;50.110;18.900;2023-05-27T05:23:53;99515.95;;;13.81;55.48
35758;BME280;21879;50.110;18.900;2023-05-27T05:34:19;99510.69;;;14.33;55.22
35758;BME280;21879;50.110;18.900;2023-05-27T05:44:45;99510.09;;;14.81;53.85
35758;BME280;21879;50.110;18.900;2023-05-27T05:55:11;99512.69;;;15.19;52.77
35758;BME280;21879;50.110;18.900;2023-05-27T06:05:37;99515.07;;;15.57;52.32
35758;BME280;21879;50.110;18.900;2023-05-27T06:16:03;99513.27;;;16.18;51.65
35758;BME280;21879;50.110;18.900;2023-05-27T06:26:29;99511.55;;;16.61;50.65
35758;BME280;21879;50.110;18.900;2023-05-27T06:36:55;99507.66;;;16.95;50.24
35758;BME280;21879;50.110;18.900;2023-05-27T06:47:22;99515.27;;;17.53;49.29
35758;BME280;21879;50.110;18.900;2023-05-27T06:57:48;99516.24;;;17.98;48.37
35758;BME280;21879;50.110;18.900;2023-05-27T07:08:14;99516.40;;;17.99;46.98
35758;BME280;21879;50.110;18.900;2023-05-27T07:18:40;99517.83;;;17.92;46.46
35758;BME280;21879;50.110;18.900;2023-05-27T07:29:09;99510.05;;;18.31;46.90
35758;BME280;21879;50.110;18.900;2023-05-27T07:39:35;99503.42;;;18.66;46.21
35758;BME280;21879;50.110;18.900;2023-05-27T07:50:01;99502.96;;;18.94;46.28
35758;BME280;21879;50.110;18.900;2023-05-27T08:00:29;99503.16;;;18.93;45.33
35758;BME280;21879;50.110;18.900;2023-05-27T08:10:55;99500.95;;;18.96;44.22
35758;BME280;21879;50.110;18.900;2023-05-27T08:21:21;99498.75;;;18.93;44.34
35758;BME280;21879;50.110;18.900;2023-05-27T08:31:47;99490.90;;;19.08;44.10
35758;BME280;21879;50.110;18.900;2023-05-27T08:42:16;99480.90;;;19.12;43.74
35758;BME280;21879;50.110;18.900;2023-05-27T08:52:46;99478.21;;;19.13;43.67
35758;BME280;21879;50.110;18.900;2023-05-27T09:03:13;99479.91;;;18.99;42.72
35758;BME280;21879;50.110;18.900;2023-05-27T09:13:39;99471.16;;;18.73;42.65
35758;BME280;21879;50.110;18.900;2023-05-27T09:24:10;99451.98;;;18.73;43.00
35758;BME280;21879;50.110;18.900;2023-05-27T09:34:40;99443.07;;;18.70;43.09
35758;BME280;21879;50.110;18.900;2023-05-27T09:45:09;99439.79;;;18.68;42.50
35758;BME280;21879;50.110;18.900;2023-05-27T09:55:37;99441.65;;;18.64;41.28
35758;BME280;21879;50.110;18.900;2023-05-27T10:06:04;99436.36;;;18.77;41.92
35758;BME280;21879;50.110;18.900;2023-05-27T10:16:30;99440.27;;;18.64;40.46
35758;BME280;21879;50.110;18.900;2023-05-27T10:27:01;99428.37;;;18.90;41.80
35758;BME280;21879;50.110;18.900;2023-05-27T10:37:34;99422.49;;;19.14;41.36
35758;BME280;21879;50.110;18.900;2023-05-27T10:47:59;99417.27;;;19.28;40.96
35758;BME280;21879;50.110;18.900;2023-05-27T10:58:25;99414.94;;;19.24;39.90
35758;BME280;21879;50.110;18.900;2023-05-27T11:08:51;99406.36;;;19.27;39.64
35758;BME280;21879;50.110;18.900;2023-05-27T11:19:17;99404.20;;;19.29;39.90
35758;BME280;21879;50.110;18.900;2023-05-27T11:29:54;99399.48;;;19.27;38.91
35758;BME280;21879;50.110;18.900;2023-05-27T11:40:21;99395.83;;;19.26;38.76
35758;BME280;21879;50.110;18.900;2023-05-27T11:50:47;99391.11;;;19.40;39.12
35758;BME280;21879;50.110;18.900;2023-05-27T12:01:14;99380.98;;;19.42;38.24
35758;BME280;21879;50.110;18.900;2023-05-27T12:11:40;99380.66;;;19.31;37.19
35758;BME280;21879;50.110;18.900;2023-05-27T12:22:06;99373.61;;;19.31;37.18
35758;BME280;21879;50.110;18.900;2023-05-27T12:32:32;99365.26;;;19.28;36.05
35758;BME280;21879;50.110;18.900;2023-05-27T12:42:58;99352.87;;;19.39;36.60
35758;BME280;21879;50.110;18.900;2023-05-27T12:53:24;99356.02;;;19.45;34.65
35758;BME280;21879;50.110;18.900;2023-05-27T13:03:50;99341.21;;;19.55;34.87
35758;BME280;21879;50.110;18.900;2023-05-27T13:14:16;99336.06;;;19.66;33.69
35758;BME280;21879;50.110;18.900;2023-05-27T13:24:43;99330.59;;;19.66;32.78
35758;BME280;21879;50.110;18.900;2023-05-27T13:35:09;99327.48;;;19.74;32.54
35758;BME280;21879;50.110;18.900;2023-05-27T13:45:36;99322.60;;;19.57;32.03
35758;BME280;21879;50.110;18.900;2023-05-27T13:56:02;99309.56;;;19.67;33.06
35758;BME280;21879;50.110;18.900;2023-05-27T14:06:28;99307.73;;;19.69;32.80
35758;BME280;21879;50.110;18.900;2023-05-27T14:16:54;99287.48;;;19.73;33.36
35758;BME280;21879;50.110;18.900;2023-05-27T14:27:19;99282.45;;;19.80;33.67
35758;BME280;21879;50.110;18.900;2023-05-27T14:37:45;99274.98;;;19.77;33.38
35758;BME280;21879;50.110;18.900;2023-05-27T14:48:11;99264.83;;;19.75;33.37
35758;BME280;21879;50.110;18.900;2023-05-27T14:58:37;99251.83;;;19.73;33.50
35758;BME280;21879;50.110;18.900;2023-05-27T15:09:03;99252.02;;;19.68;33.80
35758;BME280;21879;50.110;18.900;2023-05-27T15:19:29;99247.00;;;19.56;33.36
35758;BME280;21879;50.110;18.900;2023-05-27T15:29:55;99236.38;;;19.57;34.00
35758;BME280;21879;50.110;18.900;2023-05-27T15:40:21;99236.86;;;19.58;34.09
35758;BME280;21879;50.110;18.900;2023-05-27T15:50:48;99231.40;;;19.53;34.08
35758;BME280;21879;50.110;18.900;2023-05-27T16:01:15;99230.63;;;19.54;34.34
35758;BME280;21879;50.110;18.900;2023-05-27T16:11:42;99222.00;;;19.45;33.88
35758;BME280;21879;50.110;18.900;2023-05-27T16:22:08;99210.96;;;19.34;33.91
35758;BME280;21879;50.110;18.900;2023-05-27T16:32:34;99203.48;;;19.26;34.06
35758;BME280;21879;50.110;18.900;2023-05-27T16:43:00;99203.17;;;19.20;33.89
35758;BME280;21879;50.110;18.900;2023-05-27T16:53:26;99199.90;;;19.08;34.55
35758;BME280;21879;50.110;18.900;2023-05-27T17:03:52;99197.56;;;18.90;35.22
35758;BME280;21879;50.110;18.900;2023-05-27T17:14:19;99194.31;;;18.87;35.92
35758;BME280;21879;50.110;18.900;2023-05-27T17:24:45;99195.81;;;18.79;36.10
35758;BME280;21879;50.110;18.900;2023-05-27T17:35:12;99202.66;;;18.69;36.02
35758;BME280;21879;50.110;18.900;2023-05-27T17:45:38;99201.50;;;18.57;36.25
35758;BME280;21879;50.110;18.900;2023-05-27T17:56:13;99207.10;;;18.47;36.93
35758;BME280;21879;50.110;18.900;2023-05-27T18:06:39;99212.67;;;18.49;37.34
35758;BME280;21879;50.110;18.900;2023-05-27T18:17:05;99218.02;;;18.52;37.81
35758;BME280;21879;50.110;18.900;2023-05-27T18:27:32;99217.64;;;18.32;38.06
35758;BME280;21879;50.110;18.900;2023-05-27T18:37:58;99225.67;;;18.17;38.25
35758;BME280;21879;50.110;18.900;2023-05-27T18:48:26;99228.13;;;18.07;38.67
35758;BME280;21879;50.110;18.900;2023-05-27T18:58:52;99233.90;;;18.02;39.51
35758;BME280;21879;50.110;18.900;2023-05-27T19:09:18;99250.38;;;17.98;40.00
35758;BME280;21879;50.110;18.900;2023-05-27T19:19:44;99255.75;;;17.78;41.01
35758;BME280;21879;50.110;18.900;2023-05-27T19:30:13;99261.91;;;17.53;41.65
35758;BME280;21879;50.110;18.900;2023-05-27T19:40:39;99269.03;;;17.38;42.10
35758;BME280;21879;50.110;18.900;2023-05-27T19:51:05;99269.90;;;17.19;42.53
35758;BME280;21879;50.110;18.900;2023-05-27T20:01:31;99272.88;;;17.19;42.88
35758;BME280;21879;50.110;18.900;2023-05-27T20:11:57;99269.64;;;17.03;43.26
35758;BME280;21879;50.110;18.900;2023-05-27T20:22:23;99268.07;;;16.88;43.73
35758;BME280;21879;50.110;18.900;2023-05-27T20:32:49;99267.52;;;16.76;44.11
35758;BME280;21879;50.110;18.900;2023-05-27T20:43:15;99270.73;;;16.73;44.21
35758;BME280;21879;50.110;18.900;2023-05-27T20:53:41;99268.48;;;16.57;44.48
35758;BME280;21879;50.110;18.900;2023-05-27T21:04:07;99268.61;;;16.37;44.67
35758;BME280;21879;50.110;18.900;2023-05-27T21:14:34;99265.38;;;16.18;45.09
35758;BME280;21879;50.110;18.900;2023-05-27T21:25:10;99264.26;;;16.14;45.38
35758;BME280;21879;50.110;18.900;2023-05-27T21:35:36;99258.23;;;16.01;45.36
35758;BME280;21879;50.110;18.900;2023-05-27T21:46:02;99257.51;;;15.86;45.78
35758;BME280;21879;50.110;18.900;2023-05-27T21:56:28;99251.88;;;15.79;45.89
35758;BME280;21879;50.110;18.900;2023-05-27T22:06:55;99242.00;;;15.56;46.07
35758;BME280;21879;50.110;18.900;2023-05-27T22:17:21;99233.11;;;15.36;46.52
35758;BME280;21879;50.110;18.900;2023-05-27T22:27:47;99229.27;;;15.19;46.95
35758;BME280;21879;50.110;18.900;2023-05-27T22:38:13;99223.54;;;15.08;47.33
35758;BME280;21879;50.110;18.900;2023-05-27T22:48:39;99218.21;;;15.03;47.56
35758;BME280;21879;50.110;18.900;2023-05-27T22:59:04;99211.77;;;15.08;47.67
35758;BME280;21879;50.110;18.900;2023-05-27T23:09:30;99200.79;;;14.97;47.45
35758;BME280;21879;50.110;18.900;2023-05-27T23:19:56;99192.31;;;14.84;47.70
35758;BME280;21879;50.110;18.900;2023-05-27T23:30:22;99194.05;;;14.66;47.68
35758;BME280;21879;50.110;18.900;2023-05-27T23:40:51;99182.19;;;14.52;48.01
35758;BME280;21879;50.110;18.900;2023-05-27T23:51:17;99179.25;;;14.50;48.22
